createdAt,value
2023-04-21T04:28:27.911Z,19.68
2023-04-21T04:29:31.066Z,19.93
2023-04-21T04:30:34.165Z,19.76
2023-04-21T04:31:36.171Z,19.73
2023-04-21T04:32:39.689Z,19.35
2023-04-21T04:33:45.283Z,20.54
2023-04-21T04:34:48.742Z,20.69
2023-04-21T04:35:51.341Z,20.86
2023-04-21T04:36:53.985Z,20.72
2023-04-21T04:37:57.458Z,21.30
2023-04-21T04:38:59.740Z,21.87
2023-04-21T04:40:02.743Z,20.42
2023-04-21T04:41:05.167Z,21.49
2023-04-21T04:42:10.881Z,21.79
2023-04-21T04:43:21.606Z,21.68
2023-04-21T04:44:25.960Z,23.71
2023-04-21T04:45:33.060Z,23.66
2023-04-21T04:46:35.514Z,23.16
2023-04-21T04:47:38.248Z,22.59
2023-04-21T04:48:40.788Z,22.97
2023-04-21T04:49:42.975Z,22.74
2023-04-21T04:50:49.638Z,22.04
2023-04-21T04:51:51.781Z,21.69
2023-04-21T04:52:53.755Z,22.18
2023-04-21T04:53:56.918Z,22.31
2023-04-21T04:55:02.565Z,22.01
2023-04-21T04:56:06.507Z,21.85
2023-04-21T04:57:08.920Z,21.88
2023-04-21T04:58:26.298Z,22.49
2023-04-21T04:59:36.030Z,21.69
2023-04-21T05:00:41.836Z,21.86
2023-04-21T05:01:46.131Z,22.04
2023-04-21T05:02:50.233Z,23.07
2023-04-21T05:03:52.370Z,24.03
2023-04-21T05:04:59.297Z,22.93
2023-04-21T05:07:26.244Z,22.08
2023-04-21T05:08:43.488Z,23.04
2023-04-21T05:10:19.550Z,23.66
2023-04-21T05:11:23.190Z,24.61
2023-04-21T05:12:27.927Z,23.59
2023-04-21T05:13:29.939Z,23.40
2023-04-21T05:14:34.840Z,23.31
2023-04-21T05:16:03.342Z,23.21
2023-04-21T05:18:23.463Z,25.56
2023-04-21T05:19:26.081Z,24.64
2023-04-21T05:21:00.927Z,24.15
2023-04-21T05:22:14.090Z,24.00
2023-04-21T05:23:20.566Z,24.41
2023-04-21T05:24:33.724Z,25.27
2023-04-21T05:27:18.442Z,24.86
2023-04-21T05:28:20.339Z,25.29
2023-04-21T05:29:22.379Z,22.99
2023-04-21T05:30:24.511Z,22.98
2023-04-21T05:31:27.206Z,22.99
2023-04-21T05:32:31.478Z,23.17
2023-04-21T05:34:00.668Z,23.74
2023-04-21T05:35:07.856Z,25.09
2023-04-21T05:36:11.028Z,24.93
2023-04-21T05:38:08.094Z,25.00
2023-04-21T05:39:13.223Z,24.05
2023-04-21T05:43:53.037Z,23.41
2023-04-21T05:44:56.008Z,23.98
2023-04-21T05:46:09.284Z,25.25
2023-04-21T05:47:14.749Z,25.28
2023-04-21T05:48:41.821Z,26.27
2023-04-21T05:49:56.068Z,27.44
2023-04-21T05:51:20.262Z,28.00
2023-04-21T05:52:30.045Z,27.02
2023-04-21T05:54:59.046Z,26.24
2023-04-21T05:59:17.543Z,24.17
2023-04-21T06:00:19.870Z,24.17
2023-04-21T06:01:21.741Z,24.99
2023-04-21T06:02:23.846Z,25.65
2023-04-21T06:03:26.106Z,27.54
2023-04-21T06:04:33.973Z,26.79
2023-04-21T06:05:38.820Z,25.37
2023-04-21T06:06:40.769Z,25.08
2023-04-21T06:07:42.673Z,25.79
2023-04-21T06:08:44.658Z,24.83
2023-04-21T06:09:50.472Z,26.22
2023-04-21T06:10:53.197Z,26.49
2023-04-21T06:11:55.008Z,27.10
2023-04-21T06:12:57.249Z,27.75
2023-04-21T06:14:02.348Z,25.54
2023-04-21T06:15:05.165Z,25.77
2023-04-21T06:16:07.040Z,26.83
2023-04-21T06:17:12.228Z,25.96
2023-04-21T06:18:15.242Z,25.88
2023-04-21T06:19:17.364Z,25.73
2023-04-21T06:20:19.663Z,24.93
2023-04-21T06:21:21.545Z,25.28
2023-04-21T06:22:23.767Z,24.62
2023-04-21T06:23:25.880Z,24.28
2023-04-21T06:24:32.800Z,23.95
2023-04-21T06:25:36.523Z,25.10
2023-04-21T06:26:38.480Z,23.89
2023-04-21T06:27:40.820Z,24.66
2023-04-21T06:28:42.849Z,24.03
2023-04-21T06:29:45.457Z,23.80
2023-04-21T06:30:49.842Z,24.81
2023-04-21T06:31:52.953Z,24.05
2023-04-21T06:32:56.338Z,24.59
2023-04-21T06:33:58.449Z,24.14
2023-04-21T06:35:00.710Z,23.46
2023-04-21T06:36:08.127Z,23.23
2023-04-21T06:37:10.384Z,22.81
2023-04-21T06:41:59.078Z,23.76
2023-04-21T06:43:02.864Z,23.61
2023-04-21T06:44:05.055Z,23.90
2023-04-21T06:45:07.715Z,22.99
2023-04-21T06:46:09.932Z,23.71
2023-04-21T06:47:13.804Z,23.34
2023-04-21T06:48:16.257Z,24.13
2023-04-21T06:49:21.877Z,23.96
2023-04-21T06:50:49.078Z,23.75
2023-04-21T06:51:53.345Z,22.92
2023-04-21T06:52:58.037Z,22.76
2023-04-21T06:54:02.229Z,23.31
2023-04-21T06:55:04.747Z,23.12
2023-04-21T06:56:07.324Z,22.61
2023-04-21T06:57:21.784Z,23.49
2023-04-21T06:58:23.922Z,23.12
2023-04-21T06:59:26.096Z,24.90
2023-04-21T07:00:29.247Z,23.90
2023-04-21T07:01:31.074Z,23.60
2023-04-21T07:02:33.129Z,22.67
2023-04-21T07:03:36.617Z,22.41
2023-04-21T07:04:38.730Z,22.76
2023-04-21T07:05:42.868Z,23.61
2023-04-21T07:06:44.934Z,23.18
2023-04-21T07:07:46.849Z,23.59
2023-04-21T07:08:48.902Z,22.88
2023-04-21T07:09:50.916Z,23.51
2023-04-21T07:10:53.218Z,23.51
2023-04-21T07:11:55.987Z,22.98
2023-04-21T07:12:58.054Z,23.52
2023-04-21T07:14:02.298Z,23.81
2023-04-21T07:15:05.515Z,22.66
2023-04-21T07:16:08.777Z,22.81
2023-04-21T07:17:11.156Z,22.47
2023-04-21T07:18:13.363Z,22.09
2023-04-21T07:19:16.566Z,22.90
2023-04-21T07:20:23.198Z,23.08
2023-04-21T07:21:26.062Z,24.06
2023-04-21T07:22:28.011Z,24.12
2023-04-21T07:23:29.917Z,23.28
2023-04-21T07:24:35.594Z,23.38
2023-04-21T07:25:39.821Z,23.22
2023-04-21T07:26:43.651Z,22.76
2023-04-21T07:27:45.869Z,23.58
2023-04-21T07:28:49.826Z,23.17
2023-04-21T07:29:52.006Z,24.25
2023-04-21T07:30:54.405Z,25.14
2023-04-21T07:31:58.644Z,24.06
2023-04-21T07:33:00.934Z,24.42
2023-04-21T07:34:02.985Z,24.40
2023-04-21T07:35:07.772Z,23.96
2023-04-21T07:36:11.666Z,24.20
2023-04-21T07:38:00.168Z,25.11
2023-04-21T07:39:02.241Z,25.05
2023-04-21T07:40:04.768Z,24.69
2023-04-21T07:41:07.205Z,24.46
2023-04-21T07:42:09.684Z,23.90
2023-04-21T07:43:11.685Z,24.02
2023-04-21T07:48:46.447Z,25.37
2023-04-21T07:49:51.589Z,25.88
2023-04-21T07:52:22.365Z,25.03
2023-04-21T07:53:28.037Z,25.21
2023-04-21T07:56:16.598Z,23.94
2023-04-21T07:57:34.520Z,24.64
2023-04-21T07:58:45.899Z,24.90
2023-04-21T07:59:48.451Z,24.79
2023-04-21T08:00:55.035Z,24.60
2023-04-21T08:01:58.790Z,24.57
2023-04-21T08:03:51.685Z,24.79
2023-04-21T08:10:39.217Z,24.62
2023-04-21T08:11:41.207Z,25.66
2023-04-21T08:12:44.712Z,25.87
2023-04-21T08:13:46.753Z,26.00
2023-04-21T08:14:52.095Z,25.80
2023-04-21T08:16:19.521Z,25.84
2023-04-21T08:17:22.011Z,25.70
2023-04-21T08:18:24.041Z,25.01
2023-04-21T08:19:28.254Z,26.45
2023-04-21T08:20:30.911Z,25.02
2023-04-21T08:21:34.216Z,24.14
2023-04-21T08:22:48.617Z,23.34
2023-04-21T08:23:52.154Z,24.10
2023-04-21T08:24:54.395Z,24.28
2023-04-21T08:26:02.158Z,25.15
2023-04-21T08:27:04.581Z,23.20
2023-04-21T08:28:06.682Z,23.59
2023-04-21T08:29:10.764Z,23.13
2023-04-21T08:30:13.377Z,22.62
2023-04-21T08:31:17.948Z,23.86
2023-04-21T08:32:24.779Z,24.24
2023-04-21T08:33:26.848Z,24.02
2023-04-21T08:34:30.144Z,23.38
2023-04-21T08:35:32.383Z,23.74
2023-04-21T08:36:35.453Z,22.57
2023-04-21T08:37:38.787Z,22.34
2023-04-21T08:38:44.502Z,23.60
2023-04-21T08:39:46.868Z,23.14
2023-04-21T08:40:50.801Z,23.37
2023-04-21T08:41:53.314Z,24.07
2023-04-21T08:42:58.113Z,23.64
2023-04-21T08:44:01.171Z,24.03
2023-04-21T08:45:04.555Z,23.02
2023-04-21T08:46:08.405Z,23.39
2023-04-21T08:47:13.953Z,22.67
2023-04-21T08:48:21.414Z,24.13
2023-04-21T08:49:36.919Z,22.99
2023-04-21T08:50:44.991Z,22.35
2023-04-21T08:51:47.816Z,22.37
2023-04-21T08:52:49.661Z,22.04
2023-04-21T08:53:52.272Z,22.42
2023-04-21T08:54:58.791Z,22.43
2023-04-21T08:57:15.796Z,22.77
2023-04-21T08:58:19.522Z,22.61
2023-04-21T08:59:27.408Z,22.85
2023-04-21T09:00:33.827Z,23.12
2023-04-21T09:02:15.757Z,23.52
2023-04-21T09:03:28.911Z,22.83
2023-04-21T09:04:41.285Z,22.55
2023-04-21T09:05:44.120Z,22.09
2023-04-21T09:06:46.540Z,22.10
2023-04-21T09:07:48.780Z,21.73
2023-04-21T09:09:10.045Z,21.77
2023-04-21T09:10:23.946Z,21.31
2023-04-21T09:11:33.891Z,21.14
2023-04-21T09:12:41.145Z,21.30
2023-04-21T09:13:44.376Z,22.30
2023-04-21T09:14:46.801Z,22.27
2023-04-21T09:15:54.996Z,21.19
2023-04-21T09:17:04.235Z,20.94
2023-04-21T09:18:16.076Z,20.39
2023-04-21T09:19:44.734Z,20.22
2023-04-21T09:20:49.555Z,20.24
2023-04-21T09:21:55.717Z,19.66
2023-04-21T09:23:06.030Z,19.87
2023-04-21T09:24:09.504Z,19.83
2023-04-21T09:25:16.892Z,19.76
2023-04-21T09:26:29.872Z,19.64
2023-04-21T09:27:35.485Z,19.73
2023-04-21T09:28:54.834Z,19.74
2023-04-21T09:51:36.888Z,19.27
2023-04-21T09:52:47.252Z,19.57
2023-04-21T09:53:53.482Z,19.37
2023-04-21T09:55:04.377Z,19.08
2023-04-21T09:56:15.035Z,19.40
2023-04-21T15:29:30.370Z,16.49
2023-04-21T18:11:33.910Z,14.76
2023-04-21T18:40:31.473Z,14.38
2023-04-21T18:46:26.858Z,14.27
2023-04-21T18:48:52.879Z,14.23
2023-04-21T18:51:01.046Z,14.19
2023-04-21T18:56:26.155Z,14.08
2023-04-21T18:57:37.760Z,14.06
2023-04-21T18:59:29.811Z,14.00
2023-04-21T19:01:31.967Z,14.01
